createdAt,value
2022-11-27T00:02:59.473Z,4.47
2022-11-27T00:06:01.072Z,4.22
2022-11-27T00:09:07.298Z,4.95
2022-11-27T00:12:08.862Z,4.20
2022-11-27T00:15:14.633Z,4.68
2022-11-27T00:18:18.607Z,4.38
2022-11-27T00:21:24.015Z,4.70
2022-11-27T00:24:25.567Z,3.97
2022-11-27T00:27:27.164Z,4.45
2022-11-27T00:30:28.735Z,4.32
2022-11-27T00:33:30.372Z,4.53
2022-11-27T00:36:33.849Z,4.50
2022-11-27T00:39:35.388Z,6.65
2022-11-27T00:42:36.946Z,4.63
2022-11-27T00:45:38.655Z,4.68
2022-11-27T00:48:40.536Z,3.92
2022-11-27T00:51:42.209Z,4.32
2022-11-27T00:54:43.758Z,4.90
2022-11-27T00:57:45.396Z,4.13
2022-11-27T01:00:46.922Z,4.63
2022-11-27T01:03:49.292Z,4.30
2022-11-27T01:06:50.955Z,4.38
2022-11-27T01:09:52.530Z,5.30
2022-11-27T01:12:54.073Z,4.68
2022-11-27T01:16:07.772Z,4.57
2022-11-27T01:19:11.603Z,4.15
2022-11-27T01:22:13.234Z,4.43
2022-11-27T01:25:14.836Z,4.40
2022-11-27T01:28:16.977Z,4.75
2022-11-27T01:31:24.836Z,4.32
2022-11-27T01:34:26.533Z,4.63
2022-11-27T01:37:28.167Z,4.70
2022-11-27T01:40:29.862Z,5.00
2022-11-27T01:43:51.138Z,4.30
2022-11-27T01:47:01.852Z,4.00
2022-11-27T01:50:12.470Z,4.75
2022-11-27T01:53:17.463Z,5.00
2022-11-27T01:56:20.562Z,4.55
2022-11-27T01:59:23.665Z,4.10
2022-11-27T02:02:25.867Z,4.20
2022-11-27T02:05:28.916Z,4.32
2022-11-27T02:08:30.850Z,4.60
2022-11-27T02:11:52.046Z,4.15
2022-11-27T02:15:10.820Z,4.43
2022-11-27T02:18:20.998Z,4.65
2022-11-27T02:21:46.879Z,4.90
2022-11-27T02:25:11.798Z,5.50
2022-11-27T02:28:47.218Z,4.88
2022-11-27T02:32:00.736Z,5.07
2022-11-27T02:35:14.504Z,4.95
2022-11-27T02:38:18.443Z,5.38
2022-11-27T02:41:26.482Z,5.60
2022-11-27T02:44:31.119Z,5.70
2022-11-27T02:47:33.638Z,5.70
2022-11-27T02:50:38.697Z,5.38
2022-11-27T02:53:49.659Z,5.72
2022-11-27T02:56:53.638Z,5.35
2022-11-27T02:59:57.310Z,5.88
2022-11-27T03:03:03.275Z,5.80
2022-11-27T03:06:13.419Z,5.78
2022-11-27T03:09:24.000Z,5.75
2022-11-27T03:12:25.538Z,5.88
2022-11-27T03:15:38.430Z,5.97
2022-11-27T03:18:45.543Z,5.72
2022-11-27T03:21:55.832Z,5.93
2022-11-27T03:24:58.953Z,5.38
2022-11-27T03:28:04.943Z,6.13
2022-11-27T03:31:06.659Z,6.00
2022-11-27T03:34:08.685Z,6.07
2022-11-27T03:37:10.447Z,6.05
2022-11-27T03:40:13.010Z,5.70
2022-11-27T03:43:22.179Z,5.70
2022-11-27T03:46:54.101Z,5.55
2022-11-27T03:50:17.598Z,6.22
2022-11-27T03:53:22.276Z,6.25
2022-11-27T03:56:55.469Z,6.10
2022-11-27T04:00:00.937Z,6.20
2022-11-27T04:03:04.103Z,6.13
2022-11-27T04:06:05.887Z,6.55
2022-11-27T04:09:07.532Z,6.35
2022-11-27T04:12:09.081Z,5.72
2022-11-27T04:15:11.550Z,6.35
2022-11-27T04:18:13.283Z,6.40
2022-11-27T04:21:14.979Z,6.55
2022-11-27T04:24:16.598Z,6.20
2022-11-27T04:27:19.179Z,6.80
2022-11-27T04:30:20.885Z,7.15
2022-11-27T04:33:23.278Z,7.32
2022-11-27T04:36:24.853Z,6.82
2022-11-27T04:39:26.854Z,6.70
2022-11-27T04:42:28.521Z,7.22
2022-11-27T04:45:30.501Z,6.72
2022-11-27T04:48:32.072Z,7.22
2022-11-27T04:51:34.359Z,6.82
2022-11-27T04:54:35.958Z,7.07
2022-11-27T04:57:37.595Z,7.43
2022-11-27T05:00:39.274Z,7.03
2022-11-27T05:03:40.915Z,7.05
2022-11-27T05:06:42.700Z,6.60
2022-11-27T05:09:44.249Z,6.28
2022-11-27T05:12:45.800Z,7.38
2022-11-27T05:15:47.375Z,6.72
2022-11-27T05:18:48.943Z,7.25
2022-11-27T05:21:51.703Z,6.53
2022-11-27T05:24:53.368Z,7.45
2022-11-27T05:27:54.975Z,7.45
2022-11-27T05:30:56.626Z,6.50
2022-11-27T05:33:58.478Z,7.20
2022-11-27T05:37:00.150Z,7.20
2022-11-27T05:40:01.778Z,7.40
2022-11-27T05:43:03.781Z,6.63
2022-11-27T05:46:07.064Z,6.07
2022-11-27T05:49:14.012Z,6.72
2022-11-27T05:52:15.567Z,6.93
2022-11-27T05:55:17.086Z,6.80
2022-11-27T05:58:19.060Z,6.78
2022-11-27T06:01:20.645Z,7.28
2022-11-27T06:04:22.208Z,6.95
2022-11-27T06:07:23.910Z,6.82
2022-11-27T06:10:25.450Z,7.00
2022-11-27T06:13:27.171Z,6.88
2022-11-27T06:16:28.815Z,6.75
2022-11-27T06:19:30.702Z,6.88
2022-11-27T06:22:32.335Z,6.00
2022-11-27T06:25:33.905Z,7.13
2022-11-27T06:28:35.449Z,6.60
2022-11-27T06:31:37.277Z,6.75
2022-11-27T06:34:39.348Z,6.68
2022-11-27T06:37:41.142Z,6.68
2022-11-27T06:40:42.717Z,6.50
2022-11-27T06:43:44.494Z,6.85
2022-11-27T06:46:46.053Z,6.55
2022-11-27T06:49:47.758Z,6.80
2022-11-27T06:52:49.296Z,7.03
2022-11-27T06:55:50.810Z,7.10
2022-11-27T06:58:54.267Z,6.05
2022-11-27T07:01:55.861Z,6.18
2022-11-27T07:04:57.384Z,6.40
2022-11-27T07:07:59.408Z,6.97
2022-11-27T07:11:10.418Z,7.15
2022-11-27T07:14:12.040Z,6.55
2022-11-27T07:17:13.580Z,6.82
2022-11-27T07:20:15.348Z,6.47
2022-11-27T07:23:16.890Z,6.15
2022-11-27T07:26:21.173Z,6.70
2022-11-27T07:29:23.040Z,6.35
2022-11-27T07:32:24.631Z,6.80
2022-11-27T07:35:26.171Z,5.32
2022-11-27T07:38:27.748Z,5.85
2022-11-27T07:41:33.727Z,5.55
2022-11-27T07:44:40.195Z,6.32
2022-11-27T07:47:41.941Z,5.53
2022-11-27T07:50:43.720Z,5.55
2022-11-27T07:53:45.673Z,5.28
2022-11-27T07:56:47.256Z,5.47
2022-11-27T07:59:48.849Z,5.38
2022-11-27T08:02:50.423Z,5.70
2022-11-27T08:05:52.105Z,4.80
2022-11-27T08:08:56.532Z,5.10
2022-11-27T08:11:58.076Z,4.82
2022-11-27T08:14:59.800Z,5.25
2022-11-27T08:18:01.336Z,4.38
2022-11-27T08:21:02.957Z,4.40
2022-11-27T08:24:04.987Z,4.93
2022-11-27T08:27:06.554Z,4.38
2022-11-27T08:30:09.055Z,4.45
2022-11-27T08:33:13.123Z,4.60
2022-11-27T08:36:18.162Z,4.32
2022-11-27T08:39:20.396Z,4.43
2022-11-27T08:42:21.929Z,4.18
2022-11-27T08:45:23.546Z,4.47
2022-11-27T08:48:25.889Z,4.72
2022-11-27T08:51:27.817Z,5.15
2022-11-27T08:54:29.589Z,4.47
2022-11-27T08:57:31.102Z,4.22
2022-11-27T09:00:34.834Z,4.20
2022-11-27T09:03:36.773Z,4.60
2022-11-27T09:06:41.588Z,4.05
2022-11-27T09:09:43.637Z,4.40
2022-11-27T09:12:45.309Z,3.72
2022-11-27T09:15:46.858Z,4.68
2022-11-27T09:18:50.479Z,3.85
2022-11-27T09:21:52.140Z,4.22
2022-11-27T09:24:53.673Z,4.03
2022-11-27T09:27:55.196Z,7.72
2022-11-27T09:30:57.923Z,4.65
2022-11-27T09:33:59.503Z,4.78
2022-11-27T09:37:01.101Z,4.50
2022-11-27T09:40:02.826Z,3.72
2022-11-27T09:43:10.057Z,4.50
2022-11-27T09:46:19.608Z,4.10
2022-11-27T09:49:43.540Z,4.28
2022-11-27T09:52:53.795Z,4.95
2022-11-27T09:55:58.585Z,4.40
2022-11-27T09:59:00.868Z,4.55
2022-11-27T10:02:02.561Z,4.55
2022-11-27T10:05:14.195Z,4.25
2022-11-27T10:08:35.166Z,4.45
2022-11-27T10:11:56.444Z,4.13
2022-11-27T10:15:11.432Z,4.57
2022-11-27T10:18:16.451Z,4.97
2022-11-27T10:21:48.623Z,4.60
2022-11-27T10:25:08.005Z,4.30
2022-11-27T10:28:50.097Z,4.60
2022-11-27T10:31:59.141Z,5.13
2022-11-27T10:35:15.954Z,4.47
2022-11-27T10:38:27.809Z,4.82
2022-11-27T10:41:49.909Z,5.20
2022-11-27T10:45:01.693Z,4.53
2022-11-27T10:48:03.736Z,4.88
2022-11-27T10:51:18.095Z,4.57
2022-11-27T10:54:27.046Z,4.97
2022-11-27T10:57:42.393Z,4.55
2022-11-27T11:00:43.946Z,5.15
2022-11-27T11:03:45.972Z,5.60
2022-11-27T11:06:49.927Z,5.85
2022-11-27T11:09:52.787Z,5.28
2022-11-27T11:13:28.047Z,6.10
2022-11-27T11:16:34.818Z,5.50
2022-11-27T11:19:38.886Z,5.28
2022-11-27T11:22:48.638Z,5.22
2022-11-27T11:25:54.484Z,5.60
2022-11-27T11:28:59.493Z,5.50
2022-11-27T11:32:10.918Z,4.82
2022-11-27T11:35:32.106Z,5.25
2022-11-27T11:41:53.173Z,4.72
2022-11-27T11:49:28.226Z,4.55
2022-11-27T11:52:49.150Z,4.50
2022-11-27T11:56:39.755Z,4.72
2022-11-27T12:00:12.960Z,4.28
2022-11-27T12:03:36.053Z,5.05
2022-11-27T12:11:06.293Z,4.70
2022-11-27T12:22:02.625Z,3.78
2022-11-27T12:25:53.147Z,6.78
2022-11-27T12:29:21.214Z,4.35
2022-11-27T12:32:39.480Z,5.25
2022-11-27T12:35:59.787Z,5.32
2022-11-27T12:39:23.636Z,4.72
2022-11-27T12:42:46.126Z,4.10
2022-11-27T12:46:10.769Z,5.20
2022-11-27T12:49:17.479Z,4.00
2022-11-27T12:52:27.048Z,3.80
2022-11-27T12:55:32.880Z,4.10
2022-11-27T12:58:42.551Z,4.00
2022-11-27T13:01:50.464Z,9.15
2022-11-27T13:04:58.941Z,5.20
2022-11-27T13:08:23.563Z,4.80
2022-11-27T13:11:37.113Z,4.60
2022-11-27T13:14:41.644Z,4.38
2022-11-27T13:17:45.362Z,4.85
2022-11-27T13:20:52.357Z,4.20
2022-11-27T13:23:54.602Z,4.00
2022-11-27T13:27:15.795Z,4.10
2022-11-27T13:30:28.221Z,5.30
2022-11-27T13:33:37.792Z,4.40
2022-11-27T13:36:42.629Z,3.38
2022-11-27T13:39:44.720Z,4.00
2022-11-27T13:42:55.072Z,3.85
2022-11-27T13:46:09.903Z,4.07
2022-11-27T13:49:24.794Z,3.50
2022-11-27T13:52:26.627Z,3.30
2022-11-27T13:55:30.705Z,3.40
2022-11-27T13:58:34.090Z,4.07
2022-11-27T14:01:35.729Z,3.53
2022-11-27T14:04:54.340Z,4.25
2022-11-27T14:07:58.683Z,3.90
2022-11-27T14:11:09.415Z,4.30
2022-11-27T14:17:47.354Z,4.75
2022-11-27T14:20:57.924Z,4.68
2022-11-27T14:24:00.538Z,4.20
2022-11-27T14:27:18.647Z,3.40
2022-11-27T14:30:23.179Z,3.55
2022-11-27T14:33:27.055Z,3.90
2022-11-27T14:36:31.782Z,3.58
2022-11-27T14:39:36.869Z,3.50
2022-11-27T14:42:39.289Z,4.90
2022-11-27T14:45:50.213Z,5.22
2022-11-27T14:52:07.257Z,4.13
2022-11-27T14:55:15.196Z,4.38
2022-11-27T14:58:22.619Z,4.43
2022-11-27T15:01:32.980Z,4.50
2022-11-27T15:04:40.125Z,4.45
2022-11-27T15:07:47.900Z,4.80
2022-11-27T15:10:57.683Z,4.07
2022-11-27T15:14:02.553Z,4.65
2022-11-27T15:17:06.157Z,4.60
2022-11-27T15:20:26.514Z,4.32
2022-11-27T15:23:30.843Z,4.10
2022-11-27T15:26:40.422Z,4.15
2022-11-27T15:30:04.716Z,4.07
2022-11-27T15:33:06.334Z,3.75
2022-11-27T15:36:20.758Z,4.03
2022-11-27T15:39:24.669Z,4.10
2022-11-27T15:42:27.578Z,3.97
2022-11-27T15:45:31.390Z,3.65
2022-11-27T15:48:33.047Z,3.67
2022-11-27T15:51:34.611Z,4.55
2022-11-27T15:54:36.143Z,4.18
2022-11-27T15:57:37.712Z,4.57
2022-11-27T16:00:40.820Z,3.70
2022-11-27T16:03:42.524Z,3.80
2022-11-27T16:06:44.074Z,3.63
2022-11-27T16:09:47.274Z,3.67
2022-11-27T16:12:48.873Z,3.58
2022-11-27T16:15:50.477Z,3.53
2022-11-27T16:18:52.082Z,4.07
2022-11-27T16:21:53.611Z,4.32
2022-11-27T16:24:55.170Z,3.88
2022-11-27T16:28:02.191Z,3.63
2022-11-27T16:31:09.020Z,3.40
2022-11-27T16:34:10.591Z,3.85
2022-11-27T16:37:18.106Z,3.38
2022-11-27T16:40:20.348Z,3.75
2022-11-27T16:43:22.181Z,3.60
2022-11-27T16:46:26.357Z,3.97
2022-11-27T16:49:27.975Z,4.18
2022-11-27T16:52:29.638Z,4.07
2022-11-27T16:55:31.778Z,3.70
2022-11-27T16:58:37.365Z,3.67
2022-11-27T17:01:40.895Z,4.05
2022-11-27T17:04:42.976Z,4.13
2022-11-27T17:07:44.830Z,4.28
2022-11-27T17:10:46.661Z,4.13
2022-11-27T17:13:48.924Z,4.72
2022-11-27T17:16:50.739Z,4.68
2022-11-27T17:19:55.072Z,4.47
2022-11-27T17:22:56.813Z,4.40
2022-11-27T17:25:58.778Z,3.90
2022-11-27T17:29:03.076Z,4.10
2022-11-27T17:32:07.176Z,4.03
2022-11-27T17:35:09.169Z,4.18
2022-11-27T17:38:10.785Z,4.13
2022-11-27T17:41:13.900Z,4.32
2022-11-27T17:44:15.679Z,4.38
2022-11-27T17:47:17.428Z,3.97
2022-11-27T17:50:21.872Z,4.40
2022-11-27T17:53:23.454Z,4.40
2022-11-27T17:56:24.988Z,4.53
2022-11-27T17:59:26.576Z,4.38
2022-11-27T18:02:28.200Z,4.95
2022-11-27T18:05:29.818Z,4.88
2022-11-27T18:08:32.352Z,3.97
2022-11-27T18:11:33.975Z,4.38
2022-11-27T18:14:35.748Z,4.05
2022-11-27T18:17:37.584Z,4.25
2022-11-27T18:20:39.601Z,3.60
2022-11-27T18:24:14.441Z,4.05
2022-11-27T18:27:09.212Z,4.28
2022-11-27T18:30:11.623Z,3.70
2022-11-27T18:33:13.190Z,3.80
2022-11-27T18:36:15.908Z,3.65
2022-11-27T18:39:17.449Z,3.90
2022-11-27T18:42:19.105Z,3.97
2022-11-27T18:45:37.401Z,3.88
2022-11-27T18:48:39.730Z,3.63
2022-11-27T18:51:41.324Z,3.53
2022-11-27T18:54:48.208Z,4.07
2022-11-27T18:58:11.938Z,3.53
2022-11-27T19:02:01.683Z,4.30
2022-11-27T19:16:53.352Z,4.63
2022-11-27T19:19:55.265Z,4.70
2022-11-27T19:22:56.932Z,4.50
2022-11-27T19:26:03.620Z,4.05
2022-11-27T19:29:08.325Z,4.45
2022-11-27T19:32:09.995Z,3.95
2022-11-27T19:35:14.457Z,3.78
2022-11-27T19:38:16.126Z,3.95
2022-11-27T19:41:18.364Z,3.78
2022-11-27T19:44:20.400Z,3.70
2022-11-27T19:47:21.944Z,4.10
2022-11-27T19:50:23.524Z,3.80
2022-11-27T19:53:25.900Z,4.28
2022-11-27T19:56:30.299Z,4.05
2022-11-27T19:59:31.879Z,4.20
2022-11-27T20:02:38.425Z,4.15
2022-11-27T20:05:40.084Z,4.00
2022-11-27T20:08:42.635Z,4.05
2022-11-27T20:11:44.260Z,3.90
2022-11-27T20:14:45.820Z,4.25
2022-11-27T20:17:47.400Z,4.15
2022-11-27T20:20:52.537Z,4.85
2022-11-27T20:23:54.572Z,4.40
2022-11-27T20:26:56.315Z,4.45
2022-11-27T20:30:00.015Z,4.20
2022-11-27T20:33:07.198Z,4.63
2022-11-27T20:36:13.957Z,3.90
2022-11-27T20:39:20.919Z,4.53
2022-11-27T20:42:23.869Z,4.82
2022-11-27T20:45:25.888Z,5.25
2022-11-27T20:48:28.133Z,4.95
2022-11-27T20:51:33.474Z,4.72
2022-11-27T20:54:35.020Z,4.75
2022-11-27T20:57:36.617Z,4.25
2022-11-27T21:00:40.010Z,4.82
2022-11-27T21:03:41.723Z,4.80
2022-11-27T21:06:44.193Z,4.93
2022-11-27T21:09:45.976Z,5.03
2022-11-27T21:12:47.653Z,5.30
2022-11-27T21:15:49.307Z,5.38
2022-11-27T21:18:59.176Z,6.68
2022-11-27T21:22:00.766Z,5.67
2022-11-27T21:25:03.038Z,5.20
2022-11-27T21:28:04.783Z,5.45
2022-11-27T21:31:16.891Z,5.07
2022-11-27T21:34:18.657Z,5.70
2022-11-27T21:37:20.636Z,6.07
2022-11-27T21:40:22.212Z,6.05
2022-11-27T21:43:33.874Z,5.75
2022-11-27T21:47:04.436Z,5.60
2022-11-27T21:50:24.324Z,5.20
2022-11-27T21:53:25.891Z,5.43
2022-11-27T21:56:29.536Z,5.35
2022-11-27T21:59:31.101Z,5.10
2022-11-27T22:02:32.680Z,6.03
2022-11-27T22:05:34.264Z,5.10
2022-11-27T22:08:36.459Z,5.90
2022-11-27T22:11:37.998Z,6.18
2022-11-27T22:14:39.885Z,6.15
2022-11-27T22:17:41.690Z,6.03
2022-11-27T22:20:43.607Z,6.30
2022-11-27T22:23:45.741Z,6.18
2022-11-27T22:26:47.898Z,5.95
2022-11-27T22:29:49.499Z,6.47
2022-11-27T22:32:55.270Z,6.13
2022-11-27T22:35:56.776Z,6.20
2022-11-27T22:39:00.238Z,6.18
2022-11-27T22:42:01.842Z,6.00
2022-11-27T22:45:04.210Z,5.97
2022-11-27T22:48:06.253Z,5.63
2022-11-27T22:51:07.973Z,6.13
2022-11-27T22:54:12.747Z,6.38
2022-11-27T22:57:14.520Z,5.72
2022-11-27T23:00:17.250Z,6.28
2022-11-27T23:03:18.866Z,6.53
2022-11-27T23:06:23.098Z,6.60
2022-11-27T23:09:24.685Z,6.65
2022-11-27T23:12:26.244Z,6.18
2022-11-27T23:15:27.788Z,6.55
2022-11-27T23:18:29.610Z,6.78
2022-11-27T23:21:32.694Z,6.57
2022-11-27T23:24:34.277Z,6.85
2022-11-27T23:27:35.827Z,6.80
2022-11-27T23:30:37.359Z,7.20
2022-11-27T23:33:39.810Z,8.45
2022-11-27T23:36:41.884Z,7.47
2022-11-27T23:39:43.413Z,7.63
2022-11-27T23:42:45.067Z,7.40
2022-11-27T23:45:46.684Z,7.18
2022-11-27T23:48:48.462Z,7.38
2022-11-27T23:51:50.035Z,7.32
2022-11-27T23:54:51.738Z,8.15
2022-11-27T23:57:53.363Z,7.80
